sensor_id;sensor_type;location;lat;lon;timestamp;pressure;altitude;pressure_sealevel;temperature;humidity
29215;BME280;16252;49.816;7.964;2023-07-09T00:01:59;100270.00;;;22.01;84.13
29215;BME280;16252;49.816;7.964;2023-07-09T00:04:24;100276.94;;;22.04;83.79
29215;BME280;16252;49.816;7.964;2023-07-09T00:06:50;100280.88;;;22.01;83.88
29215;BME280;16252;49.816;7.964;2023-07-09T00:09:20;100278.53;;;21.98;83.10
29215;BME280;16252;49.816;7.964;2023-07-09T00:11:47;100288.38;;;21.99;83.36
29215;BME280;16252;49.816;7.964;2023-07-09T00:14:15;100291.63;;;22.03;83.52
29215;BME280;16252;49.816;7.964;2023-07-09T00:16:42;100287.56;;;21.99;83.16
29215;BME280;16252;49.816;7.964;2023-07-09T00:19:12;100296.47;;;22.07;83.36
29215;BME280;16252;49.816;7.964;2023-07-09T00:21:41;100302.00;;;21.99;83.01
29215;BME280;16252;49.816;7.964;2023-07-09T00:24:07;100312.25;;;21.97;83.32
29215;BME280;16252;49.816;7.964;2023-07-09T00:26:36;100284.97;;;21.82;83.23
29215;BME280;16252;49.816;7.964;2023-07-09T00:29:03;100315.34;;;21.94;83.42
29215;BME280;16252;49.816;7.964;2023-07-09T00:31:28;100307.63;;;21.83;83.14
29215;BME280;16252;49.816;7.964;2023-07-09T00:33:54;100309.16;;;21.77;83.02
29215;BME280;16252;49.816;7.964;2023-07-09T00:36:30;100322.84;;;21.92;82.98
29215;BME280;16252;49.816;7.964;2023-07-09T00:38:56;100289.22;;;21.62;83.34
29215;BME280;16252;49.816;7.964;2023-07-09T00:41:25;100299.19;;;21.70;83.50
29215;BME280;16252;49.816;7.964;2023-07-09T00:43:51;100321.41;;;21.81;83.41
29215;BME280;16252;49.816;7.964;2023-07-09T00:48:51;100322.06;;;21.83;83.25
29215;BME280;16252;49.816;7.964;2023-07-09T00:51:20;100305.84;;;21.67;83.40
29215;BME280;16252;49.816;7.964;2023-07-09T00:53:49;100304.84;;;21.68;83.31
29215;BME280;16252;49.816;7.964;2023-07-09T00:56:23;100286.84;;;21.59;82.91
29215;BME280;16252;49.816;7.964;2023-07-09T00:58:51;100291.00;;;21.55;82.95
29215;BME280;16252;49.816;7.964;2023-07-09T01:01:18;100282.84;;;21.47;82.98
29215;BME280;16252;49.816;7.964;2023-07-09T01:03:50;100308.41;;;21.69;83.21
29215;BME280;16252;49.816;7.964;2023-07-09T01:06:23;100303.13;;;21.67;83.43
29215;BME280;16252;49.816;7.964;2023-07-09T01:08:50;100299.25;;;21.61;83.15
29215;BME280;16252;49.816;7.964;2023-07-09T01:11:20;100323.53;;;21.71;82.60
29215;BME280;16252;49.816;7.964;2023-07-09T01:13:53;100307.44;;;21.61;82.68
29215;BME280;16252;49.816;7.964;2023-07-09T01:16:19;100305.44;;;21.55;82.47
29215;BME280;16252;49.816;7.964;2023-07-09T01:18:49;100278.66;;;21.36;82.17
29215;BME280;16252;49.816;7.964;2023-07-09T01:21:14;100307.03;;;21.50;82.42
29215;BME280;16252;49.816;7.964;2023-07-09T01:23:44;100305.69;;;21.46;82.46
29215;BME280;16252;49.816;7.964;2023-07-09T01:26:11;100294.66;;;21.39;82.24
29215;BME280;16252;49.816;7.964;2023-07-09T01:28:38;100278.19;;;21.32;82.75
29215;BME280;16252;49.816;7.964;2023-07-09T01:31:14;100302.28;;;21.43;82.60
29215;BME280;16252;49.816;7.964;2023-07-09T01:33:43;100304.94;;;21.52;82.74
29215;BME280;16252;49.816;7.964;2023-07-09T01:36:11;100308.16;;;21.55;82.51
29215;BME280;16252;49.816;7.964;2023-07-09T01:38:39;100295.16;;;21.42;82.43
29215;BME280;16252;49.816;7.964;2023-07-09T01:41:04;100267.47;;;21.31;82.31
29215;BME280;16252;49.816;7.964;2023-07-09T01:43:31;100269.88;;;21.26;82.34
29215;BME280;16252;49.816;7.964;2023-07-09T01:45:56;100303.66;;;21.39;82.19
29215;BME280;16252;49.816;7.964;2023-07-09T01:48:23;100288.19;;;21.32;82.00
29215;BME280;16252;49.816;7.964;2023-07-09T01:50:50;100302.81;;;21.39;80.87
29215;BME280;16252;49.816;7.964;2023-07-09T01:53:18;100317.91;;;21.50;79.91
29215;BME280;16252;49.816;7.964;2023-07-09T01:55:44;100298.56;;;21.36;79.65
29215;BME280;16252;49.816;7.964;2023-07-09T01:58:10;100309.97;;;21.40;79.33
29215;BME280;16252;49.816;7.964;2023-07-09T02:00:37;100309.59;;;21.43;80.59
29215;BME280;16252;49.816;7.964;2023-07-09T02:03:03;100287.19;;;21.33;81.04
29215;BME280;16252;49.816;7.964;2023-07-09T02:05:31;100286.03;;;21.27;80.04
29215;BME280;16252;49.816;7.964;2023-07-09T02:07:57;100310.13;;;21.38;79.85
29215;BME280;16252;49.816;7.964;2023-07-09T02:10:22;100303.31;;;21.34;80.67
29215;BME280;16252;49.816;7.964;2023-07-09T02:12:48;100308.25;;;21.39;80.03
29215;BME280;16252;49.816;7.964;2023-07-09T02:15:14;100292.31;;;21.28;80.43
29215;BME280;16252;49.816;7.964;2023-07-09T02:17:40;100302.53;;;21.26;78.73
29215;BME280;16252;49.816;7.964;2023-07-09T02:20:08;100310.34;;;21.29;80.18
29215;BME280;16252;49.816;7.964;2023-07-09T02:22:34;100225.44;;;20.79;80.21
29215;BME280;16252;49.816;7.964;2023-07-09T02:24:59;100270.53;;;21.05;79.46
29215;BME280;16252;49.816;7.964;2023-07-09T02:27:25;100302.53;;;21.26;80.29
29215;BME280;16252;49.816;7.964;2023-07-09T02:29:51;100276.81;;;21.05;79.64
29215;BME280;16252;49.816;7.964;2023-07-09T02:32:21;100315.63;;;21.30;79.61
29215;BME280;16252;49.816;7.964;2023-07-09T02:34:47;100328.53;;;21.28;80.29
29215;BME280;16252;49.816;7.964;2023-07-09T02:37:16;100304.63;;;21.15;80.99
29215;BME280;16252;49.816;7.964;2023-07-09T02:39:42;100308.56;;;21.13;79.51
29215;BME280;16252;49.816;7.964;2023-07-09T02:42:12;100330.59;;;21.26;80.54
29215;BME280;16252;49.816;7.964;2023-07-09T02:44:39;100317.25;;;21.08;80.09
29215;BME280;16252;49.816;7.964;2023-07-09T02:47:05;100307.78;;;20.96;80.33
29215;BME280;16252;49.816;7.964;2023-07-09T02:49:30;100333.41;;;21.10;80.02
29215;BME280;16252;49.816;7.964;2023-07-09T02:51:56;100327.47;;;21.06;80.69
29215;BME280;16252;49.816;7.964;2023-07-09T02:54:21;100336.97;;;21.10;80.56
29215;BME280;16252;49.816;7.964;2023-07-09T02:56:46;100324.09;;;21.04;80.52
29215;BME280;16252;49.816;7.964;2023-07-09T02:59:12;100303.06;;;20.90;80.56
29215;BME280;16252;49.816;7.964;2023-07-09T03:01:37;100344.28;;;21.10;80.71
29215;BME280;16252;49.816;7.964;2023-07-09T03:04:03;100317.97;;;20.94;79.98
29215;BME280;16252;49.816;7.964;2023-07-09T03:06:29;100340.72;;;21.09;80.57
29215;BME280;16252;49.816;7.964;2023-07-09T03:08:57;100351.06;;;21.14;79.45
29215;BME280;16252;49.816;7.964;2023-07-09T03:11:23;100313.28;;;20.88;80.62
29215;BME280;16252;49.816;7.964;2023-07-09T03:13:48;100336.66;;;21.05;79.18
29215;BME280;16252;49.816;7.964;2023-07-09T03:16:15;100357.16;;;21.16;80.07
29215;BME280;16252;49.816;7.964;2023-07-09T03:18:40;100340.09;;;20.99;79.62
29215;BME280;16252;49.816;7.964;2023-07-09T03:21:06;100330.75;;;20.93;80.04
29215;BME280;16252;49.816;7.964;2023-07-09T03:23:31;100340.09;;;20.99;79.98
29215;BME280;16252;49.816;7.964;2023-07-09T03:25:57;100365.53;;;21.14;79.66
29215;BME280;16252;49.816;7.964;2023-07-09T03:28:22;100347.38;;;20.98;79.02
29215;BME280;16252;49.816;7.964;2023-07-09T03:30:49;100376.56;;;21.13;78.09
29215;BME280;16252;49.816;7.964;2023-07-09T03:33:16;100368.41;;;21.13;79.52
29215;BME280;16252;49.816;7.964;2023-07-09T03:35:41;100349.97;;;20.92;79.22
29215;BME280;16252;49.816;7.964;2023-07-09T03:38:08;100357.25;;;20.99;79.06
29215;BME280;16252;49.816;7.964;2023-07-09T03:40:34;100357.25;;;20.91;79.72
29215;BME280;16252;49.816;7.964;2023-07-09T03:42:59;100362.38;;;20.94;80.14
29215;BME280;16252;49.816;7.964;2023-07-09T03:45:25;100351.50;;;20.86;80.07
29215;BME280;16252;49.816;7.964;2023-07-09T03:47:50;100359.50;;;20.88;80.02
29215;BME280;16252;49.816;7.964;2023-07-09T03:50:16;100378.84;;;20.93;79.91
29215;BME280;16252;49.816;7.964;2023-07-09T03:52:41;100358.50;;;20.81;79.85
29215;BME280;16252;49.816;7.964;2023-07-09T03:55:07;100362.94;;;20.82;79.30
29215;BME280;16252;49.816;7.964;2023-07-09T03:57:34;100377.19;;;20.92;79.57
29215;BME280;16252;49.816;7.964;2023-07-09T04:00:00;100351.41;;;20.63;79.98
29215;BME280;16252;49.816;7.964;2023-07-09T04:02:25;100357.34;;;20.75;79.95
29215;BME280;16252;49.816;7.964;2023-07-09T04:04:50;100379.91;;;20.84;80.23
29215;BME280;16252;49.816;7.964;2023-07-09T04:07:16;100368.06;;;20.76;80.54
29215;BME280;16252;49.816;7.964;2023-07-09T04:09:42;100386.84;;;20.86;78.41
29215;BME280;16252;49.816;7.964;2023-07-09T04:12:08;100370.25;;;20.73;79.33
29215;BME280;16252;49.816;7.964;2023-07-09T04:14:34;100385.69;;;20.81;78.53
29215;BME280;16252;49.816;7.964;2023-07-09T04:16:59;100371.78;;;20.75;77.85
29215;BME280;16252;49.816;7.964;2023-07-09T04:19:25;100382.13;;;20.80;76.12
29215;BME280;16252;49.816;7.964;2023-07-09T04:21:50;100356.84;;;20.63;77.87
29215;BME280;16252;49.816;7.964;2023-07-09T04:24:19;100369.91;;;20.76;77.75
29215;BME280;16252;49.816;7.964;2023-07-09T04:26:45;100367.72;;;20.71;77.83
29215;BME280;16252;49.816;7.964;2023-07-09T04:29:11;100391.81;;;20.83;77.53
29215;BME280;16252;49.816;7.964;2023-07-09T04:31:36;100368.72;;;20.70;78.92
29215;BME280;16252;49.816;7.964;2023-07-09T04:34:02;100356.00;;;20.63;78.03
29215;BME280;16252;49.816;7.964;2023-07-09T04:36:28;100395.88;;;20.78;77.78
29215;BME280;16252;49.816;7.964;2023-07-09T04:38:53;100365.34;;;20.68;78.87
29215;BME280;16252;49.816;7.964;2023-07-09T04:41:19;100366.19;;;20.69;79.25
29215;BME280;16252;49.816;7.964;2023-07-09T04:43:44;100399.25;;;20.89;78.22
29215;BME280;16252;49.816;7.964;2023-07-09T04:46:09;100364.66;;;20.74;77.80
29215;BME280;16252;49.816;7.964;2023-07-09T04:48:35;100376.00;;;20.78;76.28
29215;BME280;16252;49.816;7.964;2023-07-09T04:51:00;100387.41;;;20.82;76.02
29215;BME280;16252;49.816;7.964;2023-07-09T04:53:26;100389.09;;;20.83;77.93
29215;BME280;16252;49.816;7.964;2023-07-09T04:55:51;100384.34;;;20.85;76.73
29215;BME280;16252;49.816;7.964;2023-07-09T04:58:17;100399.06;;;20.98;78.58
29215;BME280;16252;49.816;7.964;2023-07-09T05:00:43;100380.22;;;20.89;77.76
29215;BME280;16252;49.816;7.964;2023-07-09T05:03:08;100387.34;;;20.98;79.06
29215;BME280;16252;49.816;7.964;2023-07-09T05:05:34;100376.31;;;20.91;78.70
29215;BME280;16252;49.816;7.964;2023-07-09T05:07:59;100378.50;;;20.96;79.38
29215;BME280;16252;49.816;7.964;2023-07-09T05:10:25;100384.09;;;21.03;79.73
29215;BME280;16252;49.816;7.964;2023-07-09T05:12:52;100383.59;;;21.07;79.77
29215;BME280;16252;49.816;7.964;2023-07-09T05:15:19;100390.34;;;21.19;78.47
29215;BME280;16252;49.816;7.964;2023-07-09T05:17:45;100381.84;;;21.14;79.61
29215;BME280;16252;49.816;7.964;2023-07-09T05:20:12;100375.53;;;21.14;77.73
29215;BME280;16252;49.816;7.964;2023-07-09T05:22:37;100348.56;;;21.04;77.34
29215;BME280;16252;49.816;7.964;2023-07-09T05:25:02;100371.94;;;21.21;76.86
29215;BME280;16252;49.816;7.964;2023-07-09T05:27:28;100369.84;;;21.32;77.50
29215;BME280;16252;49.816;7.964;2023-07-09T05:29:53;100387.50;;;21.44;77.71
29215;BME280;16252;49.816;7.964;2023-07-09T05:32:18;100365.59;;;21.37;78.42
29215;BME280;16252;49.816;7.964;2023-07-09T05:34:44;100378.66;;;21.42;77.36
29215;BME280;16252;49.816;7.964;2023-07-09T05:37:09;100375.63;;;21.45;76.54
29215;BME280;16252;49.816;7.964;2023-07-09T05:39:34;100388.81;;;21.56;77.91
29215;BME280;16252;49.816;7.964;2023-07-09T05:41:59;100375.56;;;21.53;78.06
29215;BME280;16252;49.816;7.964;2023-07-09T05:44:25;100390.94;;;21.69;77.16
29215;BME280;16252;49.816;7.964;2023-07-09T05:46:50;100379.38;;;21.67;78.60
29215;BME280;16252;49.816;7.964;2023-07-09T05:49:15;100384.47;;;21.70;78.46
29215;BME280;16252;49.816;7.964;2023-07-09T05:51:41;100385.63;;;21.76;78.25
29215;BME280;16252;49.816;7.964;2023-07-09T05:54:07;100390.34;;;21.82;77.00
29215;BME280;16252;49.816;7.964;2023-07-09T05:56:32;100381.50;;;21.80;77.67
29215;BME280;16252;49.816;7.964;2023-07-09T05:58:57;100374.66;;;21.84;77.79
29215;BME280;16252;49.816;7.964;2023-07-09T06:01:23;100361.06;;;21.84;77.20
29215;BME280;16252;49.816;7.964;2023-07-09T06:03:49;100398.47;;;22.13;78.64
29215;BME280;16252;49.816;7.964;2023-07-09T06:06:14;100394.16;;;22.19;78.15
29215;BME280;16252;49.816;7.964;2023-07-09T06:08:40;100394.50;;;22.24;76.91
29215;BME280;16252;49.816;7.964;2023-07-09T06:11:05;100394.56;;;22.31;76.78
29215;BME280;16252;49.816;7.964;2023-07-09T06:13:31;100403.19;;;22.42;75.81
29215;BME280;16252;49.816;7.964;2023-07-09T06:15:57;100410.44;;;22.50;77.83
29215;BME280;16252;49.816;7.964;2023-07-09T06:18:24;100402.44;;;22.48;77.24
29215;BME280;16252;49.816;7.964;2023-07-09T06:20:55;100409.13;;;22.61;77.60
29215;BME280;16252;49.816;7.964;2023-07-09T06:23:20;100401.69;;;22.55;77.20
29215;BME280;16252;49.816;7.964;2023-07-09T06:25:46;100406.88;;;22.64;77.71
29215;BME280;16252;49.816;7.964;2023-07-09T06:28:14;100404.63;;;22.68;76.82
29215;BME280;16252;49.816;7.964;2023-07-09T06:30:40;100404.84;;;22.66;77.93
29215;BME280;16252;49.816;7.964;2023-07-09T06:33:05;100394.28;;;22.63;76.91
29215;BME280;16252;49.816;7.964;2023-07-09T06:35:31;100414.44;;;22.77;76.25
29215;BME280;16252;49.816;7.964;2023-07-09T06:37:57;100384.69;;;22.67;77.89
29215;BME280;16252;49.816;7.964;2023-07-09T06:40:22;100376.06;;;22.64;76.32
29215;BME280;16252;49.816;7.964;2023-07-09T06:42:48;100397.00;;;22.78;76.00
29215;BME280;16252;49.816;7.964;2023-07-09T06:45:13;100369.66;;;22.71;77.43
29215;BME280;16252;49.816;7.964;2023-07-09T06:47:38;100399.97;;;22.91;77.79
29215;BME280;16252;49.816;7.964;2023-07-09T06:50:04;100386.94;;;22.93;77.31
29215;BME280;16252;49.816;7.964;2023-07-09T06:52:29;100402.69;;;23.06;77.57
29215;BME280;16252;49.816;7.964;2023-07-09T06:54:55;100399.59;;;23.09;77.48
29215;BME280;16252;49.816;7.964;2023-07-09T06:57:20;100405.97;;;23.31;77.50
29215;BME280;16252;49.816;7.964;2023-07-09T06:59:45;100389.94;;;23.43;79.02
29215;BME280;16252;49.816;7.964;2023-07-09T07:02:10;100393.94;;;23.62;77.42
29215;BME280;16252;49.816;7.964;2023-07-09T07:04:36;100372.56;;;23.66;76.28
29215;BME280;16252;49.816;7.964;2023-07-09T07:07:01;100379.94;;;23.87;74.91
29215;BME280;16252;49.816;7.964;2023-07-09T07:09:27;100391.00;;;24.00;76.14
29215;BME280;16252;49.816;7.964;2023-07-09T07:11:52;100371.38;;;24.11;77.83
29215;BME280;16252;49.816;7.964;2023-07-09T07:14:17;100386.50;;;24.57;80.89
29215;BME280;16252;49.816;7.964;2023-07-09T07:16:42;100381.88;;;24.92;80.05
29215;BME280;16252;49.816;7.964;2023-07-09T07:19:08;100372.16;;;25.24;80.38
29215;BME280;16252;49.816;7.964;2023-07-09T07:21:34;100378.00;;;25.63;77.79
29215;BME280;16252;49.816;7.964;2023-07-09T07:24:00;100366.66;;;25.79;76.58
29215;BME280;16252;49.816;7.964;2023-07-09T07:26:25;100378.09;;;26.03;73.44
29215;BME280;16252;49.816;7.964;2023-07-09T07:28:50;100370.28;;;26.13;73.38
29215;BME280;16252;49.816;7.964;2023-07-09T07:31:16;100368.81;;;26.30;75.58
29215;BME280;16252;49.816;7.964;2023-07-09T07:33:42;100385.72;;;26.74;77.89
29215;BME280;16252;49.816;7.964;2023-07-09T07:36:08;100392.78;;;27.21;79.67
29215;BME280;16252;49.816;7.964;2023-07-09T07:38:33;100356.44;;;27.64;75.80
29215;BME280;16252;49.816;7.964;2023-07-09T07:41:00;100396.53;;;28.67;80.33
29215;BME280;16252;49.816;7.964;2023-07-09T07:43:26;100367.16;;;29.23;78.96
29215;BME280;16252;49.816;7.964;2023-07-09T07:45:51;100387.91;;;30.16;74.75
29215;BME280;16252;49.816;7.964;2023-07-09T07:48:16;100375.75;;;30.83;69.30
29215;BME280;16252;49.816;7.964;2023-07-09T07:50:41;100375.13;;;31.57;64.64
29215;BME280;16252;49.816;7.964;2023-07-09T07:53:07;100398.19;;;32.36;69.43
29215;BME280;16252;49.816;7.964;2023-07-09T07:55:34;100388.56;;;32.95;64.39
29215;BME280;16252;49.816;7.964;2023-07-09T07:57:59;100380.34;;;33.44;60.15
29215;BME280;16252;49.816;7.964;2023-07-09T08:00:28;100380.41;;;33.98;64.77
29215;BME280;16252;49.816;7.964;2023-07-09T08:02:53;100375.19;;;34.34;60.19
29215;BME280;16252;49.816;7.964;2023-07-09T08:05:18;100395.84;;;34.86;61.81
29215;BME280;16252;49.816;7.964;2023-07-09T08:07:44;100376.81;;;35.10;56.59
29215;BME280;16252;49.816;7.964;2023-07-09T08:10:10;100391.72;;;35.51;61.32
29215;BME280;16252;49.816;7.964;2023-07-09T08:12:37;100375.91;;;35.62;55.62
29215;BME280;16252;49.816;7.964;2023-07-09T08:15:02;100398.22;;;35.88;55.56
29215;BME280;16252;49.816;7.964;2023-07-09T08:17:27;100376.50;;;35.85;54.33
29215;BME280;16252;49.816;7.964;2023-07-09T08:19:53;100385.69;;;35.85;53.72
29215;BME280;16252;49.816;7.964;2023-07-09T08:22:20;100386.56;;;35.86;53.64
29215;BME280;16252;49.816;7.964;2023-07-09T08:24:47;100386.25;;;35.92;55.29
29215;BME280;16252;49.816;7.964;2023-07-09T08:27:13;100369.84;;;35.91;57.08
29215;BME280;16252;49.816;7.964;2023-07-09T08:29:38;100385.75;;;36.16;52.04
29215;BME280;16252;49.816;7.964;2023-07-09T08:32:05;100406.38;;;36.45;53.38
29215;BME280;16252;49.816;7.964;2023-07-09T08:34:31;100395.78;;;36.73;50.09
29215;BME280;16252;49.816;7.964;2023-07-09T08:36:56;100374.53;;;36.93;52.72
29215;BME280;16252;49.816;7.964;2023-07-09T08:39:21;100359.38;;;37.24;53.26
29215;BME280;16252;49.816;7.964;2023-07-09T08:41:56;100367.75;;;37.79;54.07
29215;BME280;16252;49.816;7.964;2023-07-09T08:50:13;100397.03;;;39.38;50.79
29215;BME280;16252;49.816;7.964;2023-07-09T08:52:42;100387.25;;;39.78;50.73
29215;BME280;16252;49.816;7.964;2023-07-09T08:55:18;100377.13;;;40.15;48.20
29215;BME280;16252;49.816;7.964;2023-07-09T08:57:47;100381.44;;;40.59;46.63
29215;BME280;16252;49.816;7.964;2023-07-09T09:00:14;100401.03;;;41.06;42.54
29215;BME280;16252;49.816;7.964;2023-07-09T09:02:46;100382.09;;;41.39;42.39
29215;BME280;16252;49.816;7.964;2023-07-09T09:05:18;100390.78;;;41.79;43.34
29215;BME280;16252;49.816;7.964;2023-07-09T09:07:44;100386.22;;;42.06;42.40
29215;BME280;16252;49.816;7.964;2023-07-09T09:10:18;100367.84;;;42.31;42.47
29215;BME280;16252;49.816;7.964;2023-07-09T09:13:03;100385.22;;;42.78;40.27
29215;BME280;16252;49.816;7.964;2023-07-09T09:15:31;100366.56;;;42.91;38.67
29215;BME280;16252;49.816;7.964;2023-07-09T09:18:09;100369.44;;;43.17;37.66
29215;BME280;16252;49.816;7.964;2023-07-09T09:20:38;100372.69;;;43.41;39.94
29215;BME280;16252;49.816;7.964;2023-07-09T09:23:15;100390.63;;;43.71;36.54
29215;BME280;16252;49.816;7.964;2023-07-09T09:25:44;100345.22;;;43.73;36.45
29215;BME280;16252;49.816;7.964;2023-07-09T09:28:10;100392.13;;;44.12;36.88
29215;BME280;16252;49.816;7.964;2023-07-09T09:30:36;100365.41;;;44.19;37.01
29215;BME280;16252;49.816;7.964;2023-07-09T09:33:06;100379.16;;;44.46;36.45
29215;BME280;16252;49.816;7.964;2023-07-09T09:35:41;100383.97;;;44.46;36.05
29215;BME280;16252;49.816;7.964;2023-07-09T09:38:18;100364.41;;;44.23;34.94
29215;BME280;16252;49.816;7.964;2023-07-09T09:40:44;100381.00;;;44.42;38.89
29215;BME280;16252;49.816;7.964;2023-07-09T09:43:18;100371.06;;;44.19;33.11
29215;BME280;16252;49.816;7.964;2023-07-09T09:45:47;100343.53;;;43.81;35.90
29215;BME280;16252;49.816;7.964;2023-07-09T09:48:26;100347.50;;;43.54;34.01
29215;BME280;16252;49.816;7.964;2023-07-09T09:50:52;100362.16;;;43.16;34.54
29215;BME280;16252;49.816;7.964;2023-07-09T09:53:20;100359.34;;;42.76;33.49
29215;BME280;16252;49.816;7.964;2023-07-09T09:55:47;100359.19;;;42.41;33.35
29215;BME280;16252;49.816;7.964;2023-07-09T09:58:14;100354.81;;;42.04;35.28
29215;BME280;16252;49.816;7.964;2023-07-09T10:00:40;100346.38;;;41.67;32.91
29215;BME280;16252;49.816;7.964;2023-07-09T10:03:05;100335.19;;;41.40;33.57
29215;BME280;16252;49.816;7.964;2023-07-09T10:05:43;100344.06;;;41.33;36.88
29215;BME280;16252;49.816;7.964;2023-07-09T10:08:22;100335.88;;;41.09;35.80
29215;BME280;16252;49.816;7.964;2023-07-09T10:10:52;100307.09;;;40.76;34.25
29215;BME280;16252;49.816;7.964;2023-07-09T10:13:34;100332.03;;;40.91;36.64
29215;BME280;16252;49.816;7.964;2023-07-09T10:16:17;100326.91;;;40.79;34.83
29215;BME280;16252;49.816;7.964;2023-07-09T10:18:53;100292.19;;;40.47;33.91
29215;BME280;16252;49.816;7.964;2023-07-09T10:21:28;100299.13;;;40.36;35.52
29215;BME280;16252;49.816;7.964;2023-07-09T10:24:17;100298.88;;;40.19;35.00
29215;BME280;16252;49.816;7.964;2023-07-09T10:27:03;100303.25;;;39.92;36.21
29215;BME280;16252;49.816;7.964;2023-07-09T10:29:52;100287.22;;;39.60;34.35
29215;BME280;16252;49.816;7.964;2023-07-09T10:35:32;100293.81;;;39.12;33.31
29215;BME280;16252;49.816;7.964;2023-07-09T10:38:15;100287.38;;;38.88;35.13
29215;BME280;16252;49.816;7.964;2023-07-09T10:40:52;100292.41;;;38.67;35.77
29215;BME280;16252;49.816;7.964;2023-07-09T10:43:24;100276.72;;;38.42;33.76
29215;BME280;16252;49.816;7.964;2023-07-09T10:45:57;100277.81;;;38.16;35.65
29215;BME280;16252;49.816;7.964;2023-07-09T10:48:38;100288.13;;;38.21;34.82
29215;BME280;16252;49.816;7.964;2023-07-09T10:51:16;100272.13;;;37.92;35.28
29215;BME280;16252;49.816;7.964;2023-07-09T10:53:50;100280.88;;;37.86;34.97
29215;BME280;16252;49.816;7.964;2023-07-09T10:56:19;100294.91;;;37.76;34.01
29215;BME280;16252;49.816;7.964;2023-07-09T10:58:55;100286.63;;;37.65;34.22
29215;BME280;16252;49.816;7.964;2023-07-09T11:01:31;100288.59;;;37.60;33.60
29215;BME280;16252;49.816;7.964;2023-07-09T11:04:02;100262.25;;;37.31;33.37
29215;BME280;16252;49.816;7.964;2023-07-09T11:06:36;100246.41;;;37.22;34.55
29215;BME280;16252;49.816;7.964;2023-07-09T11:09:07;100276.50;;;37.30;32.51
29215;BME280;16252;49.816;7.964;2023-07-09T11:11:40;100267.06;;;37.21;34.17
29215;BME280;16252;49.816;7.964;2023-07-09T11:14:28;100269.28;;;37.24;34.55
29215;BME280;16252;49.816;7.964;2023-07-09T11:16:57;100275.19;;;37.17;34.05
29215;BME280;16252;49.816;7.964;2023-07-09T11:19:24;100264.06;;;37.07;33.46
29215;BME280;16252;49.816;7.964;2023-07-09T11:27:31;100245.13;;;36.94;33.52
29215;BME280;16252;49.816;7.964;2023-07-09T11:30:03;100252.41;;;36.95;33.01
29215;BME280;16252;49.816;7.964;2023-07-09T11:32:30;100263.78;;;37.03;32.84
29215;BME280;16252;49.816;7.964;2023-07-09T11:35:09;100263.75;;;37.14;32.89
29215;BME280;16252;49.816;7.964;2023-07-09T11:37:44;100268.22;;;37.09;32.88
29215;BME280;16252;49.816;7.964;2023-07-09T11:40:12;100256.03;;;36.95;33.66
29215;BME280;16252;49.816;7.964;2023-07-09T11:42:58;100267.72;;;37.07;33.37
29215;BME280;16252;49.816;7.964;2023-07-09T11:45:28;100258.25;;;36.93;31.97
29215;BME280;16252;49.816;7.964;2023-07-09T11:48:09;100274.09;;;37.03;31.87
29215;BME280;16252;49.816;7.964;2023-07-09T11:50:49;100250.69;;;36.99;32.58
29215;BME280;16252;49.816;7.964;2023-07-09T11:53:52;100259.06;;;37.04;32.45
29215;BME280;16252;49.816;7.964;2023-07-09T11:56:23;100252.63;;;37.03;31.48
29215;BME280;16252;49.816;7.964;2023-07-09T11:58:56;100234.88;;;36.84;32.17
29215;BME280;16252;49.816;7.964;2023-07-09T12:01:26;100257.97;;;36.95;32.14
29215;BME280;16252;49.816;7.964;2023-07-09T12:03:52;100242.13;;;36.85;32.20
29215;BME280;16252;49.816;7.964;2023-07-09T12:06:27;100246.56;;;36.91;31.72
29215;BME280;16252;49.816;7.964;2023-07-09T12:08:53;100247.09;;;36.93;33.46
29215;BME280;16252;49.816;7.964;2023-07-09T12:14:04;100248.22;;;36.97;31.37
29215;BME280;16252;49.816;7.964;2023-07-09T12:16:34;100244.31;;;36.93;31.63
29215;BME280;16252;49.816;7.964;2023-07-09T12:19:00;100214.56;;;36.78;32.68
29215;BME280;16252;49.816;7.964;2023-07-09T12:21:26;100226.78;;;36.87;32.26
29215;BME280;16252;49.816;7.964;2023-07-09T12:23:55;100220.66;;;36.85;30.67
29215;BME280;16252;49.816;7.964;2023-07-09T12:26:23;100226.75;;;36.93;30.53
29215;BME280;16252;49.816;7.964;2023-07-09T12:28:53;100203.38;;;36.83;30.52
29215;BME280;16252;49.816;7.964;2023-07-09T12:31:26;100215.00;;;37.01;30.98
29215;BME280;16252;49.816;7.964;2023-07-09T12:33:54;100213.06;;;36.96;30.27
29215;BME280;16252;49.816;7.964;2023-07-09T12:36:20;100210.56;;;36.95;30.09
29215;BME280;16252;49.816;7.964;2023-07-09T12:38:50;100189.69;;;36.92;30.88
29215;BME280;16252;49.816;7.964;2023-07-09T12:41:27;100202.69;;;37.02;30.07
29215;BME280;16252;49.816;7.964;2023-07-09T12:43:54;100201.63;;;36.98;30.08
29215;BME280;16252;49.816;7.964;2023-07-09T12:46:20;100175.47;;;36.88;31.29
29215;BME280;16252;49.816;7.964;2023-07-09T12:48:46;100178.53;;;36.92;31.49
29215;BME280;16252;49.816;7.964;2023-07-09T12:51:23;100181.25;;;37.02;31.43
29215;BME280;16252;49.816;7.964;2023-07-09T12:54:00;100185.44;;;37.05;30.75
29215;BME280;16252;49.816;7.964;2023-07-09T12:56:26;100151.22;;;36.84;29.97
29215;BME280;16252;49.816;7.964;2023-07-09T12:58:56;100161.81;;;36.92;30.03
29215;BME280;16252;49.816;7.964;2023-07-09T13:01:23;100178.19;;;36.99;31.02
29215;BME280;16252;49.816;7.964;2023-07-09T13:03:57;100160.66;;;36.93;29.48
29215;BME280;16252;49.816;7.964;2023-07-09T13:06:30;100171.50;;;37.05;30.29
29215;BME280;16252;49.816;7.964;2023-07-09T13:09:00;100153.16;;;36.88;28.79
29215;BME280;16252;49.816;7.964;2023-07-09T13:11:33;100171.75;;;37.03;30.42
29215;BME280;16252;49.816;7.964;2023-07-09T13:14:02;100158.66;;;36.99;28.73
29215;BME280;16252;49.816;7.964;2023-07-09T13:16:28;100159.25;;;36.96;28.35